Rechercher aéroport 
image banner adimage banner adimage banner ad
image banner ad

PN09 - Charles Cole Memorial Hospital

Situé à Coudersport, United States

ICAO - PN09, IATA -

Données fournies par Airmate  

Information générale

Coordonnées: N41°46'18" W77°58'46"
Élévation : 1743 feet MSL.
Variation magnétique : -12° East
Voir autres Aéroports à Pennsylvania

Données opérationnelles

Special qualification required
Heure actuelle UTC:
Heure actuelle locale:
METAR: KELZ 150656Z AUTO 29008KT 10SM CLR 11/11 A2986 RMK AO2 SLP111 T01110106 $
Voir NOTAMs / SUP AIP / TFR affectant cet aéroport [VIEW]
Fréquences de communication: [VIEW]

Pistes:

Coordonnées de l'aéroport

Adresse: Coudersport United States

Vue satellite de PN09